Alamance, North Carolina
Current Conditions -  °F | °C
As of 5:54 AM on Sunday 23 Nov 2014 (Local Time) from KBUY Reporting Station
Broken Clouds Broken Clouds  
Wind Chill: 40°   Ceiling: 1100
Heat Index: 40°   Visibility: 10mi
Dew Point: 29°   Wind: 0mph
Humidity: 65%   Direction: NA
Pressure: 30.26"   Gusts: NA
Location:  36.04°N, 79.49°W
Report Text: KBUY 231054Z AUTO 00000KT 10SM BKN011 BKN032 BKN055 04/M02 A3026 RMK AO2 SLP250 T00441017
Loading
Personal Weather Stations






























Interactive Weather Map New forecast layout! Learn more

10-Day Weather Forecast

Advertisements
Track Severe Weather on mobile